JZA604 CYUL-KBOS
Flight info
| Callsign | JZA604 |
|---|---|
| Flight time | 0h 51m |
| Altitude | 31000 |
| Route | OVAXO DCT VIRKA DCT TEMPR DCT ENE OOSHN5 |
| Aircraft | E75S/M-SDE3GILORVW/S |
Departure
| Time | 2026-05-07 21:18 |
|---|---|
| Airport | Montreal / Pierre Elliott Trudeau International Airport (CYUL) |
Arrival
| Time | 2026-05-07 22:10 |
|---|---|
| Airport | Boston Logan International Airport (KBOS) |
| Time | Latitude | Longitude | Altitude | Speed | Heading |
|---|---|---|---|---|---|
| 2026-05-07 20:40 | 45.45582 | -73.75526 | 102 ft | 0 kts | 154° |
| 2026-05-07 21:02 | 45.45594 | -73.75535 | 101 ft | 4 kts | 152° |
| 2026-05-07 21:02 | 45.45618 | -73.75548 | 100 ft | 4 kts | 178° |
| 2026-05-07 21:03 | 45.45641 | -73.75535 | 103 ft | 4 kts | 220° |
| 2026-05-07 21:03 | 45.45655 | -73.75520 | 103 ft | 0 kts | 210° |
| 2026-05-07 21:07 | 45.45653 | -73.75522 | 103 ft | 1 kts | 222° |
| 2026-05-07 21:07 | 45.45640 | -73.75552 | 103 ft | 5 kts | 248° |
| 2026-05-07 21:08 | 45.45629 | -73.75610 | 101 ft | 7 kts | 258° |
| 2026-05-07 21:08 | 45.45617 | -73.75687 | 103 ft | 8 kts | 258° |
| 2026-05-07 21:08 | 45.45629 | -73.75769 | 102 ft | 10 kts | 301° |
| 2026-05-07 21:08 | 45.45680 | -73.75865 | 102 ft | 13 kts | 308° |
| 2026-05-07 21:09 | 45.45745 | -73.75981 | 102 ft | 16 kts | 313° |
| 2026-05-07 21:09 | 45.45849 | -73.76042 | 102 ft | 18 kts | 349° |
| 2026-05-07 21:09 | 45.45972 | -73.76059 | 102 ft | 14 kts | 358° |
| 2026-05-07 21:09 | 45.46052 | -73.76060 | 102 ft | 12 kts | 4° |
| 2026-05-07 21:10 | 45.46119 | -73.75978 | 100 ft | 16 kts | 74° |
| 2026-05-07 21:10 | 45.46127 | -73.75803 | 98 ft | 19 kts | 86° |
| 2026-05-07 21:10 | 45.46136 | -73.75603 | 100 ft | 21 kts | 89° |
| 2026-05-07 21:10 | 45.46141 | -73.75380 | 99 ft | 24 kts | 86° |
| 2026-05-07 21:11 | 45.46150 | -73.75138 | 100 ft | 25 kts | 86° |
| 2026-05-07 21:11 | 45.46153 | -73.74928 | 102 ft | 19 kts | 85° |
| 2026-05-07 21:11 | 45.46137 | -73.74561 | 101 ft | 16 kts | 134° |
| 2026-05-07 21:12 | 45.46051 | -73.74447 | 101 ft | 11 kts | 121° |
| 2026-05-07 21:12 | 45.46043 | -73.74335 | 100 ft | 14 kts | 56° |
| 2026-05-07 21:12 | 45.46121 | -73.74218 | 100 ft | 17 kts | 48° |
| 2026-05-07 21:12 | 45.46148 | -73.74056 | 102 ft | 18 kts | 63° |
| 2026-05-07 21:13 | 45.46249 | -73.73915 | 102 ft | 24 kts | 41° |
| 2026-05-07 21:13 | 45.46383 | -73.73737 | 105 ft | 29 kts | 43° |
| 2026-05-07 21:13 | 45.46534 | -73.73540 | 108 ft | 30 kts | 43° |
| 2026-05-07 21:13 | 45.46685 | -73.73342 | 110 ft | 26 kts | 43° |
| 2026-05-07 21:14 | 45.46822 | -73.73162 | 112 ft | 28 kts | 38° |
| 2026-05-07 21:14 | 45.46973 | -73.72967 | 114 ft | 30 kts | 39° |
| 2026-05-07 21:14 | 45.47124 | -73.72765 | 114 ft | 30 kts | 41° |
| 2026-05-07 21:14 | 45.47279 | -73.72561 | 114 ft | 30 kts | 39° |
| 2026-05-07 21:15 | 45.47437 | -73.72356 | 117 ft | 31 kts | 43° |
| 2026-05-07 21:15 | 45.47599 | -73.72148 | 117 ft | 32 kts | 44° |
| 2026-05-07 21:15 | 45.47757 | -73.71938 | 120 ft | 23 kts | 41° |
| 2026-05-07 21:15 | 45.47805 | -73.71819 | 120 ft | 10 kts | 109° |
| 2026-05-07 21:16 | 45.47767 | -73.71720 | 120 ft | 14 kts | 126° |
| 2026-05-07 21:16 | 45.47692 | -73.71638 | 120 ft | 12 kts | 189° |
| 2026-05-07 21:16 | 45.47664 | -73.71657 | 123 ft | 0 kts | 215° |
| 2026-05-07 21:18 | 45.47662 | -73.71659 | 123 ft | 3 kts | 215° |
| 2026-05-07 21:18 | 45.47490 | -73.71881 | 119 ft | 73 kts | 224° |
| 2026-05-07 21:18 | 45.46924 | -73.72632 | 125 ft | 144 kts | 227° |
| 2026-05-07 21:18 | 45.46092 | -73.73657 | 784 ft | 166 kts | 225° |
| 2026-05-07 21:19 | 45.45262 | -73.74830 | 1974 ft | 167 kts | 232° |
| 2026-05-07 21:19 | 45.44420 | -73.76086 | 3032 ft | 186 kts | 230° |
| 2026-05-07 21:19 | 45.43427 | -73.77485 | 3933 ft | 203 kts | 229° |
| 2026-05-07 21:19 | 45.42437 | -73.78831 | 5560 ft | 197 kts | 228° |
| 2026-05-07 21:20 | 45.41391 | -73.80247 | 6509 ft | 219 kts | 228° |
| 2026-05-07 21:20 | 45.40235 | -73.81789 | 7419 ft | 236 kts | 228° |
| 2026-05-07 21:20 | 45.38989 | -73.83417 | 8390 ft | 249 kts | 227° |
| 2026-05-07 21:20 | 45.37696 | -73.85100 | 9393 ft | 260 kts | 227° |
| 2026-05-07 21:21 | 45.36336 | -73.86860 | 10401 ft | 270 kts | 227° |
| 2026-05-07 21:21 | 45.34911 | -73.88700 | 11239 ft | 284 kts | 226° |
| 2026-05-07 21:21 | 45.33407 | -73.90613 | 12162 ft | 295 kts | 223° |
| 2026-05-07 21:21 | 45.31567 | -73.92037 | 13267 ft | 310 kts | 202° |
| 2026-05-07 21:22 | 45.29378 | -73.92361 | 14309 ft | 326 kts | 180° |
| 2026-05-07 21:22 | 45.27152 | -73.91492 | 15290 ft | 343 kts | 160° |
| 2026-05-07 21:22 | 45.25167 | -73.89493 | 16213 ft | 359 kts | 140° |
| 2026-05-07 21:22 | 45.23684 | -73.86612 | 17091 ft | 374 kts | 122° |
| 2026-05-07 21:23 | 45.22567 | -73.83177 | 17952 ft | 382 kts | 117° |
| 2026-05-07 21:23 | 45.21537 | -73.79675 | 18730 ft | 388 kts | 116° |
| 2026-05-07 21:23 | 45.20512 | -73.76098 | 19478 ft | 394 kts | 116° |
| 2026-05-07 21:23 | 45.19489 | -73.72510 | 20090 ft | 403 kts | 116° |
| 2026-05-07 21:24 | 45.18425 | -73.68771 | 20608 ft | 411 kts | 116° |
| 2026-05-07 21:24 | 45.17371 | -73.65099 | 21109 ft | 399 kts | 118° |
| 2026-05-07 21:24 | 45.16233 | -73.61497 | 21624 ft | 401 kts | 121° |
| 2026-05-07 21:24 | 45.15061 | -73.57879 | 22168 ft | 405 kts | 121° |
| 2026-05-07 21:25 | 45.13885 | -73.54238 | 22724 ft | 408 kts | 121° |
| 2026-05-07 21:25 | 45.12699 | -73.50574 | 23289 ft | 411 kts | 121° |
| 2026-05-07 21:25 | 45.11500 | -73.46882 | 23780 ft | 413 kts | 121° |
| 2026-05-07 21:25 | 45.10297 | -73.43186 | 24321 ft | 413 kts | 121° |
| 2026-05-07 21:26 | 45.09099 | -73.39520 | 24914 ft | 413 kts | 122° |
| 2026-05-07 21:26 | 45.07896 | -73.35850 | 25533 ft | 412 kts | 122° |
| 2026-05-07 21:26 | 45.06690 | -73.32174 | 26165 ft | 410 kts | 122° |
| 2026-05-07 21:26 | 45.05490 | -73.28516 | 26781 ft | 408 kts | 123° |
| 2026-05-07 21:27 | 45.04293 | -73.24886 | 27419 ft | 406 kts | 124° |
| 2026-05-07 21:27 | 45.03122 | -73.21269 | 28073 ft | 400 kts | 128° |
| 2026-05-07 21:27 | 45.01709 | -73.17881 | 28271 ft | 405 kts | 133° |
| 2026-05-07 21:27 | 45.00084 | -73.14626 | 28284 ft | 413 kts | 139° |
| 2026-05-07 21:28 | 44.98265 | -73.11410 | 28325 ft | 427 kts | 139° |
| 2026-05-07 21:28 | 44.96365 | -73.08087 | 28380 ft | 440 kts | 139° |
| 2026-05-07 21:28 | 44.94412 | -73.04682 | 28708 ft | 449 kts | 139° |
| 2026-05-07 21:28 | 44.92431 | -73.01243 | 29220 ft | 453 kts | 139° |
| 2026-05-07 21:29 | 44.90430 | -72.97777 | 29656 ft | 457 kts | 140° |
| 2026-05-07 21:29 | 44.88396 | -72.94272 | 29891 ft | 467 kts | 140° |
| 2026-05-07 21:29 | 44.86330 | -72.90699 | 30217 ft | 471 kts | 140° |
| 2026-05-07 21:29 | 44.84276 | -72.87167 | 30635 ft | 474 kts | 140° |
| 2026-05-07 21:30 | 44.82162 | -72.83536 | 30759 ft | 484 kts | 140° |
| 2026-05-07 21:30 | 44.80004 | -72.79833 | 30836 ft | 495 kts | 140° |
| 2026-05-07 21:30 | 44.77800 | -72.76042 | 30851 ft | 506 kts | 139° |
| 2026-05-07 21:30 | 44.75537 | -72.72166 | 30863 ft | 517 kts | 139° |
| 2026-05-07 21:31 | 44.70902 | -72.64233 | 31266 ft | 524 kts | 140° |
| 2026-05-07 21:31 | 44.68577 | -72.60273 | 31493 ft | 524 kts | 139° |
| 2026-05-07 21:31 | 44.66258 | -72.56320 | 31482 ft | 524 kts | 139° |
| 2026-05-07 21:32 | 44.63967 | -72.52415 | 31440 ft | 506 kts | 140° |
| 2026-05-07 21:32 | 44.61775 | -72.48700 | 31433 ft | 481 kts | 140° |
| 2026-05-07 21:32 | 44.59693 | -72.45176 | 31407 ft | 462 kts | 141° |
| 2026-05-07 21:32 | 44.57623 | -72.41692 | 31434 ft | 469 kts | 141° |
| 2026-05-07 21:33 | 44.53456 | -72.34629 | 31464 ft | 469 kts | 141° |
| 2026-05-07 21:33 | 44.49318 | -72.27641 | 31480 ft | 468 kts | 141° |
| 2026-05-07 21:34 | 44.45145 | -72.20615 | 31461 ft | 468 kts | 141° |
| 2026-05-07 21:34 | 44.40964 | -72.13594 | 31467 ft | 468 kts | 142° |
| 2026-05-07 21:35 | 44.36802 | -72.06619 | 31462 ft | 467 kts | 142° |
| 2026-05-07 21:35 | 44.32655 | -71.99730 | 31447 ft | 466 kts | 142° |
| 2026-05-07 21:36 | 44.28496 | -71.92777 | 31446 ft | 466 kts | 142° |
| 2026-05-07 21:36 | 44.24325 | -71.85840 | 31457 ft | 466 kts | 142° |
| 2026-05-07 21:37 | 44.20180 | -71.78932 | 31453 ft | 463 kts | 142° |
| 2026-05-07 21:37 | 44.16014 | -71.72044 | 31457 ft | 464 kts | 142° |
| 2026-05-07 21:38 | 44.11850 | -71.65173 | 31454 ft | 464 kts | 142° |
| 2026-05-07 21:38 | 44.07707 | -71.58353 | 31444 ft | 464 kts | 142° |
| 2026-05-07 21:39 | 44.03552 | -71.51534 | 31458 ft | 462 kts | 142° |
| 2026-05-07 21:39 | 43.99401 | -71.44724 | 31415 ft | 460 kts | 142° |
| 2026-05-07 21:40 | 43.95245 | -71.37935 | 31446 ft | 461 kts | 142° |
| 2026-05-07 21:40 | 43.91110 | -71.31179 | 31439 ft | 462 kts | 142° |
| 2026-05-07 21:41 | 43.86866 | -71.24576 | 31428 ft | 455 kts | 146° |
| 2026-05-07 21:41 | 43.82491 | -71.18238 | 31424 ft | 454 kts | 146° |
| 2026-05-07 21:42 | 43.78109 | -71.11939 | 31208 ft | 454 kts | 146° |
| 2026-05-07 21:42 | 43.75916 | -71.08792 | 30992 ft | 454 kts | 146° |
| 2026-05-07 21:42 | 43.73744 | -71.05686 | 30791 ft | 454 kts | 146° |
| 2026-05-07 21:43 | 43.71547 | -71.02539 | 30578 ft | 455 kts | 146° |
| 2026-05-07 21:43 | 43.69349 | -70.99391 | 30370 ft | 455 kts | 146° |
| 2026-05-07 21:43 | 43.67140 | -70.96232 | 30135 ft | 456 kts | 146° |
| 2026-05-07 21:43 | 43.64934 | -70.93080 | 29912 ft | 456 kts | 146° |
| 2026-05-07 21:44 | 43.62733 | -70.89944 | 29642 ft | 457 kts | 146° |
| 2026-05-07 21:44 | 43.60514 | -70.86789 | 29260 ft | 456 kts | 145° |
| 2026-05-07 21:44 | 43.58319 | -70.83654 | 28726 ft | 451 kts | 146° |
| 2026-05-07 21:44 | 43.56144 | -70.80562 | 28195 ft | 446 kts | 146° |
| 2026-05-07 21:45 | 43.53994 | -70.77524 | 27592 ft | 440 kts | 147° |
| 2026-05-07 21:45 | 43.51850 | -70.74508 | 27058 ft | 438 kts | 146° |
| 2026-05-07 21:45 | 43.49761 | -70.71530 | 26570 ft | 436 kts | 146° |
| 2026-05-07 21:45 | 43.47662 | -70.68530 | 26100 ft | 433 kts | 146° |
| 2026-05-07 21:46 | 43.45553 | -70.65577 | 25630 ft | 430 kts | 146° |
| 2026-05-07 21:46 | 43.43378 | -70.62854 | 25171 ft | 418 kts | 152° |
| 2026-05-07 21:46 | 43.41132 | -70.60364 | 24723 ft | 412 kts | 154° |
| 2026-05-07 21:46 | 43.38825 | -70.58109 | 24280 ft | 402 kts | 160° |
| 2026-05-07 21:47 | 43.36480 | -70.56008 | 23786 ft | 399 kts | 160° |
| 2026-05-07 21:47 | 43.34160 | -70.53952 | 23201 ft | 396 kts | 160° |
| 2026-05-07 21:47 | 43.31857 | -70.51919 | 22465 ft | 390 kts | 160° |
| 2026-05-07 21:47 | 43.29583 | -70.49920 | 21779 ft | 384 kts | 160° |
| 2026-05-07 21:48 | 43.27359 | -70.47963 | 21228 ft | 375 kts | 160° |
| 2026-05-07 21:48 | 43.25158 | -70.46039 | 20693 ft | 377 kts | 160° |
| 2026-05-07 21:48 | 43.22946 | -70.44096 | 20173 ft | 376 kts | 160° |
| 2026-05-07 21:48 | 43.20786 | -70.42202 | 19663 ft | 372 kts | 160° |
| 2026-05-07 21:49 | 43.18611 | -70.40299 | 19154 ft | 369 kts | 159° |
| 2026-05-07 21:49 | 43.16449 | -70.38409 | 18650 ft | 366 kts | 159° |
| 2026-05-07 21:49 | 43.14314 | -70.36544 | 18232 ft | 363 kts | 159° |
| 2026-05-07 21:49 | 43.12893 | -70.35304 | 17983 ft | 362 kts | 159° |
| 2026-05-07 21:50 | 43.10065 | -70.32839 | 17438 ft | 362 kts | 159° |
| 2026-05-07 21:50 | 43.08632 | -70.31589 | 17171 ft | 362 kts | 158° |
| 2026-05-07 21:50 | 43.06513 | -70.29744 | 16787 ft | 362 kts | 158° |
| 2026-05-07 21:50 | 43.04380 | -70.27887 | 16402 ft | 361 kts | 158° |
| 2026-05-07 21:51 | 43.02257 | -70.26042 | 16016 ft | 360 kts | 158° |
| 2026-05-07 21:51 | 43.00176 | -70.24235 | 15645 ft | 360 kts | 158° |
| 2026-05-07 21:51 | 42.98361 | -70.22659 | 15318 ft | 359 kts | 157° |
| 2026-05-07 21:51 | 42.96274 | -70.20849 | 14950 ft | 359 kts | 157° |
| 2026-05-07 21:52 | 42.94163 | -70.19015 | 14560 ft | 359 kts | 157° |
| 2026-05-07 21:52 | 42.92049 | -70.17190 | 14201 ft | 358 kts | 157° |
| 2026-05-07 21:52 | 42.89941 | -70.15366 | 13840 ft | 358 kts | 157° |
| 2026-05-07 21:52 | 42.87832 | -70.13541 | 13527 ft | 358 kts | 156° |
| 2026-05-07 21:53 | 42.85752 | -70.11746 | 13233 ft | 357 kts | 156° |
| 2026-05-07 21:53 | 42.85115 | -70.11196 | 13119 ft | 356 kts | 156° |
| 2026-05-07 21:53 | 42.83943 | -70.10174 | 12947 ft | 355 kts | 156° |
| 2026-05-07 21:54 | 42.81861 | -70.08365 | 12666 ft | 353 kts | 156° |
| 2026-05-07 21:54 | 42.79785 | -70.06583 | 12383 ft | 352 kts | 156° |
| 2026-05-07 21:54 | 42.77598 | -70.05298 | 12090 ft | 334 kts | 177° |
| 2026-05-07 21:54 | 42.75331 | -70.05110 | 11810 ft | 321 kts | 191° |
| 2026-05-07 21:55 | 42.73119 | -70.05416 | 11539 ft | 317 kts | 196° |
| 2026-05-07 21:55 | 42.70992 | -70.05972 | 11259 ft | 303 kts | 204° |
| 2026-05-07 21:55 | 42.69028 | -70.06850 | 10971 ft | 290 kts | 206° |
| 2026-05-07 21:55 | 42.67305 | -70.08039 | 10679 ft | 271 kts | 224° |
| 2026-05-07 21:56 | 42.65942 | -70.09724 | 10390 ft | 260 kts | 232° |
| 2026-05-07 21:56 | 42.64786 | -70.11588 | 10102 ft | 257 kts | 238° |
| 2026-05-07 21:56 | 42.63741 | -70.13568 | 9838 ft | 259 kts | 240° |
| 2026-05-07 21:56 | 42.62781 | -70.15631 | 9501 ft | 257 kts | 246° |
| 2026-05-07 21:57 | 42.61995 | -70.17780 | 9167 ft | 256 kts | 248° |
| 2026-05-07 21:57 | 42.61214 | -70.19977 | 8815 ft | 256 kts | 244° |
| 2026-05-07 21:57 | 42.59997 | -70.21741 | 8475 ft | 266 kts | 223° |
| 2026-05-07 21:57 | 42.58476 | -70.23261 | 8139 ft | 267 kts | 221° |
| 2026-05-07 21:58 | 42.56981 | -70.24700 | 7810 ft | 267 kts | 220° |
| 2026-05-07 21:58 | 42.55477 | -70.26166 | 7480 ft | 265 kts | 221° |
| 2026-05-07 21:58 | 42.53999 | -70.27659 | 7151 ft | 265 kts | 221° |
| 2026-05-07 21:58 | 42.52539 | -70.29201 | 6831 ft | 265 kts | 223° |
| 2026-05-07 21:59 | 42.51115 | -70.30781 | 6507 ft | 264 kts | 223° |
| 2026-05-07 21:59 | 42.49705 | -70.32380 | 6182 ft | 264 kts | 223° |
| 2026-05-07 21:59 | 42.48556 | -70.34243 | 6001 ft | 257 kts | 244° |
| 2026-05-07 21:59 | 42.47817 | -70.36379 | 5958 ft | 244 kts | 249° |
| 2026-05-07 22:00 | 42.47203 | -70.38401 | 5944 ft | 220 kts | 251° |
| 2026-05-07 22:00 | 42.46651 | -70.40302 | 5944 ft | 216 kts | 251° |
| 2026-05-07 22:00 | 42.46114 | -70.42196 | 5940 ft | 214 kts | 252° |
| 2026-05-07 22:00 | 42.45571 | -70.44076 | 5933 ft | 213 kts | 254° |
| 2026-05-07 22:01 | 42.45200 | -70.46017 | 5949 ft | 214 kts | 260° |
| 2026-05-07 22:01 | 42.44872 | -70.47983 | 5933 ft | 213 kts | 258° |
| 2026-05-07 22:01 | 42.44518 | -70.49934 | 5927 ft | 213 kts | 259° |
| 2026-05-07 22:01 | 42.44185 | -70.51895 | 5937 ft | 213 kts | 259° |
| 2026-05-07 22:02 | 42.43853 | -70.53833 | 5930 ft | 214 kts | 259° |
| 2026-05-07 22:02 | 42.43519 | -70.55758 | 5906 ft | 196 kts | 259° |
| 2026-05-07 22:02 | 42.43220 | -70.57502 | 5912 ft | 200 kts | 259° |
| 2026-05-07 22:02 | 42.42888 | -70.59430 | 5778 ft | 217 kts | 259° |
| 2026-05-07 22:03 | 42.42543 | -70.61413 | 5506 ft | 214 kts | 259° |
| 2026-05-07 22:03 | 42.42209 | -70.63357 | 5233 ft | 212 kts | 259° |
| 2026-05-07 22:03 | 42.41873 | -70.65301 | 4970 ft | 211 kts | 259° |
| 2026-05-07 22:03 | 42.41536 | -70.67241 | 4698 ft | 212 kts | 259° |
| 2026-05-07 22:04 | 42.41200 | -70.69179 | 4421 ft | 210 kts | 259° |
| 2026-05-07 22:04 | 42.40864 | -70.71109 | 4147 ft | 210 kts | 259° |
| 2026-05-07 22:04 | 42.40535 | -70.73002 | 3875 ft | 209 kts | 259° |
| 2026-05-07 22:04 | 42.40203 | -70.74912 | 3593 ft | 204 kts | 259° |
| 2026-05-07 22:05 | 42.39888 | -70.76721 | 3343 ft | 188 kts | 259° |
| 2026-05-07 22:05 | 42.39607 | -70.78338 | 3150 ft | 171 kts | 259° |
| 2026-05-07 22:05 | 42.39343 | -70.79850 | 2889 ft | 162 kts | 259° |
| 2026-05-07 22:05 | 42.39082 | -70.81350 | 2658 ft | 164 kts | 259° |
| 2026-05-07 22:06 | 42.38819 | -70.82838 | 2435 ft | 158 kts | 258° |
| 2026-05-07 22:06 | 42.38580 | -70.84211 | 2234 ft | 138 kts | 259° |
| 2026-05-07 22:06 | 42.38372 | -70.85404 | 2038 ft | 125 kts | 261° |
| 2026-05-07 22:06 | 42.38176 | -70.86509 | 1854 ft | 119 kts | 259° |
| 2026-05-07 22:07 | 42.37938 | -70.87569 | 1693 ft | 118 kts | 261° |
| 2026-05-07 22:07 | 42.37797 | -70.88673 | 1552 ft | 119 kts | 262° |
| 2026-05-07 22:07 | 42.37608 | -70.89748 | 1406 ft | 118 kts | 259° |
| 2026-05-07 22:07 | 42.37396 | -70.90832 | 1260 ft | 119 kts | 259° |
| 2026-05-07 22:08 | 42.37225 | -70.91931 | 1066 ft | 119 kts | 261° |
| 2026-05-07 22:08 | 42.37033 | -70.93022 | 922 ft | 122 kts | 259° |
| 2026-05-07 22:08 | 42.36827 | -70.94125 | 749 ft | 117 kts | 259° |
| 2026-05-07 22:08 | 42.36648 | -70.95185 | 598 ft | 117 kts | 260° |
| 2026-05-07 22:09 | 42.36454 | -70.96307 | 457 ft | 123 kts | 261° |
| 2026-05-07 22:09 | 42.36257 | -70.97393 | 280 ft | 114 kts | 262° |
| 2026-05-07 22:09 | 42.36071 | -70.98479 | 103 ft | 118 kts | 263° |
| 2026-05-07 22:09 | 42.35886 | -70.99558 | 23 ft | 109 kts | 257° |
| 2026-05-07 22:10 | 42.35746 | -71.00333 | 23 ft | 46 kts | 258° |
| 2026-05-07 22:10 | 42.35685 | -71.00693 | 26 ft | 23 kts | 256° |
| 2026-05-07 22:10 | 42.35646 | -71.00907 | 23 ft | 24 kts | 256° |
| 2026-05-07 22:10 | 42.35646 | -71.01106 | 25 ft | 10 kts | 288° |
| 2026-05-07 22:11 | 42.35682 | -71.01194 | 23 ft | 12 kts | 309° |
| 2026-05-07 22:11 | 42.35733 | -71.01289 | 24 ft | 13 kts | 296° |
| 2026-05-07 22:11 | 42.35770 | -71.01413 | 23 ft | 15 kts | 289° |
| 2026-05-07 22:11 | 42.35808 | -71.01555 | 25 ft | 17 kts | 288° |
| 2026-05-07 22:12 | 42.35836 | -71.01719 | 26 ft | 19 kts | 281° |
| 2026-05-07 22:12 | 42.35873 | -71.01892 | 24 ft | 20 kts | 296° |
| 2026-05-07 22:12 | 42.35946 | -71.02062 | 23 ft | 21 kts | 301° |
| 2026-05-07 22:12 | 42.36018 | -71.02226 | 23 ft | 16 kts | 301° |
| 2026-05-07 22:13 | 42.36063 | -71.02298 | 23 ft | 8 kts | 324° |
| 2026-05-07 22:13 | 42.36119 | -71.02317 | 23 ft | 9 kts | 19° |
| 2026-05-07 22:13 | 42.36182 | -71.02273 | 23 ft | 11 kts | 26° |
| 2026-05-07 22:13 | 42.36257 | -71.02220 | 23 ft | 13 kts | 52° |
| 2026-05-07 22:14 | 42.36286 | -71.02106 | 23 ft | 11 kts | 73° |
| 2026-05-07 22:14 | 42.36307 | -71.02050 | 23 ft | 7 kts | 49° |
| 2026-05-07 22:14 | 42.36346 | -71.02004 | 23 ft | 5 kts | 67° |
| 2026-05-07 22:14 | 42.36343 | -71.01989 | 23 ft | 1 kts | 137° |
| 2026-05-07 22:15 | 42.36332 | -71.01978 | 23 ft | 4 kts | 143° |
| 2026-05-07 22:15 | 42.36322 | -71.01969 | 23 ft | 1 kts | 145° |
| 2026-05-07 22:15 | 42.36321 | -71.01968 | 23 ft | 0 kts | 145° |